createdAt,value
2023-09-17T00:01:04.717Z,25
2023-09-17T00:04:04.747Z,25.08
2023-09-17T00:06:05.115Z,25.07
2023-09-17T00:09:04.822Z,25.1
2023-09-17T00:11:04.713Z,25.16
2023-09-17T00:14:05.317Z,25.3
2023-09-17T00:17:04.914Z,25.31
2023-09-17T00:20:04.852Z,25.39
2023-09-17T00:22:05.321Z,25.45
2023-09-17T00:25:04.761Z,25.4
2023-09-17T00:27:04.798Z,25.38
2023-09-17T00:30:05.092Z,25.37
2023-09-17T00:32:05.604Z,25.36
2023-09-17T00:35:04.720Z,25.28
2023-09-17T00:38:05.265Z,25.23
2023-09-17T00:41:04.681Z,25.16
2023-09-17T00:43:04.779Z,25.22
2023-09-17T00:45:05.419Z,25.17
2023-09-17T00:48:04.960Z,25.21
2023-09-17T00:51:04.675Z,25.2
2023-09-17T00:53:05.335Z,25.2
2023-09-17T00:56:05.558Z,25.27
2023-09-17T00:59:04.899Z,25.06
2023-09-17T01:02:04.712Z,24.94
2023-09-17T01:04:04.842Z,24.96
2023-09-17T01:07:04.718Z,24.93
2023-09-17T01:09:04.736Z,24.89
2023-09-17T01:12:04.737Z,24.83
2023-09-17T01:14:04.911Z,24.82
2023-09-17T01:17:04.773Z,24.78
2023-09-17T01:19:05.374Z,24.75
2023-09-17T01:22:04.697Z,24.87
2023-09-17T01:24:05.525Z,24.82
2023-09-17T01:27:04.726Z,24.65
2023-09-17T01:30:04.702Z,24.67
2023-09-17T01:32:05.638Z,24.64
2023-09-17T01:35:04.719Z,24.65
2023-09-17T01:38:05.676Z,24.67
2023-09-17T01:41:04.703Z,24.63
2023-09-17T01:43:04.712Z,24.58
2023-09-17T01:45:04.722Z,24.57
2023-09-17T01:47:05.509Z,24.61
2023-09-17T01:50:05.300Z,24.58
2023-09-17T01:53:04.732Z,24.56
2023-09-17T01:56:04.735Z,24.64
2023-09-17T01:59:05.635Z,24.69
2023-09-17T02:02:05.470Z,24.91
2023-09-17T02:05:04.785Z,24.86
2023-09-17T02:07:04.726Z,24.88
2023-09-17T02:09:04.760Z,24.92
2023-09-17T02:11:05.361Z,24.95
2023-09-17T02:14:04.794Z,24.96
2023-09-17T02:17:04.724Z,25.03
2023-09-17T02:19:04.748Z,25.08
2023-09-17T02:21:05.058Z,25.12
2023-09-17T02:24:04.891Z,25.16
2023-09-17T02:27:05.246Z,25.04
2023-09-17T02:30:05.612Z,24.94
2023-09-17T02:33:04.912Z,24.85
2023-09-17T02:36:05.176Z,24.9
2023-09-17T02:39:04.771Z,24.95
2023-09-17T02:41:05.293Z,24.97
2023-09-17T02:44:05.002Z,25
2023-09-17T02:48:04.760Z,25.07
2023-09-17T02:50:04.894Z,25.1
2023-09-17T02:53:04.760Z,25.12
2023-09-17T02:55:05.371Z,25.1
2023-09-17T02:58:04.736Z,25.1
2023-09-17T03:00:05.252Z,25.11
2023-09-17T03:03:04.752Z,25.11
2023-09-17T03:06:03.835Z,25.02
2023-09-17T03:08:05.191Z,24.91
2023-09-17T03:11:04.753Z,24.93
2023-09-17T03:13:05.613Z,24.89
2023-09-17T03:16:04.832Z,24.73
2023-09-17T03:19:04.802Z,24.71
2023-09-17T03:22:04.731Z,24.66
2023-09-17T03:25:05.412Z,24.72
2023-09-17T03:28:04.730Z,24.83
2023-09-17T03:30:04.758Z,24.81
2023-09-17T03:32:05.626Z,24.79
2023-09-17T03:35:04.735Z,24.77
2023-09-17T03:37:04.792Z,24.81
2023-09-17T03:40:05.018Z,24.75
2023-09-17T03:43:04.748Z,24.82
2023-09-17T03:45:04.766Z,24.85
2023-09-17T03:48:04.797Z,24.89
2023-09-17T03:51:04.761Z,24.79
2023-09-17T03:54:04.763Z,24.75
2023-09-17T03:57:04.744Z,24.77
2023-09-17T03:59:04.779Z,24.81
2023-09-17T04:01:05.126Z,24.76
2023-09-17T04:04:04.777Z,24.69
2023-09-17T04:07:04.849Z,24.58
2023-09-17T04:10:04.744Z,24.55
2023-09-17T04:12:04.942Z,24.62
2023-09-17T04:14:05.657Z,24.63
2023-09-17T04:17:04.806Z,24.71
2023-09-17T04:19:05.379Z,24.75
2023-09-17T04:22:04.739Z,24.83
2023-09-17T04:24:04.759Z,24.82
2023-09-17T04:26:05.465Z,24.87
2023-09-17T04:28:05.536Z,24.86
2023-09-17T04:31:05.481Z,24.86
2023-09-17T04:36:12.011Z,24.86
2023-09-17T04:39:04.748Z,24.87
2023-09-17T04:42:04.759Z,24.78
2023-09-17T04:44:04.832Z,24.72
2023-09-17T04:47:04.791Z,24.66
2023-09-17T04:50:04.739Z,24.7
2023-09-17T04:52:04.773Z,24.68
2023-09-17T04:55:04.779Z,24.63
2023-09-17T04:58:04.743Z,24.69
2023-09-17T05:00:04.760Z,24.73
2023-09-17T05:02:05.492Z,24.75
2023-09-17T05:05:05.341Z,24.72
2023-09-17T05:08:05.022Z,24.72
2023-09-17T05:11:05.633Z,24.71
2023-09-17T05:14:04.827Z,24.68
2023-09-17T05:17:05.471Z,24.71
2023-09-17T05:20:05.661Z,24.78
2023-09-17T05:23:05.625Z,24.78
2023-09-17T05:26:04.820Z,24.7
2023-09-17T05:28:04.841Z,24.67
2023-09-17T05:30:04.899Z,24.67
2023-09-17T05:32:05.592Z,24.67
2023-09-17T05:35:05.317Z,24.64
2023-09-17T05:38:04.840Z,24.61
2023-09-17T05:40:04.893Z,24.59
2023-09-17T05:43:05.246Z,24.52
2023-09-17T05:46:05.044Z,24.43
2023-09-17T05:48:05.291Z,24.37
2023-09-17T05:51:04.779Z,24.37
2023-09-17T05:54:05.176Z,24.31
2023-09-17T05:57:04.733Z,24.27
2023-09-17T05:59:04.808Z,24.28
2023-09-17T06:02:04.789Z,24.4
2023-09-17T06:04:04.834Z,24.45
2023-09-17T06:07:04.801Z,24.49
2023-09-17T06:10:04.880Z,24.53
2023-09-17T06:13:04.769Z,24.54
2023-09-17T06:15:04.836Z,24.51
2023-09-17T06:18:04.842Z,24.51
2023-09-17T06:20:04.881Z,24.48
2023-09-17T06:22:05.560Z,24.5
2023-09-17T06:25:05.533Z,24.49
2023-09-17T06:28:04.886Z,24.52
2023-09-17T06:30:04.928Z,24.54
2023-09-17T06:32:05.288Z,24.56
2023-09-17T06:35:04.802Z,24.64
2023-09-17T06:37:04.798Z,24.65
2023-09-17T06:39:05.565Z,24.68
2023-09-17T06:42:04.941Z,24.76
2023-09-17T06:44:05.284Z,24.77
2023-09-17T06:46:05.738Z,24.71
2023-09-17T06:49:04.829Z,24.72
2023-09-17T06:51:05.613Z,24.74
2023-09-17T06:54:04.807Z,24.77
2023-09-17T06:57:04.819Z,24.68
2023-09-17T07:00:05.562Z,24.66
2023-09-17T07:03:04.845Z,24.75
2023-09-17T07:05:05.211Z,24.78
2023-09-17T07:08:05.139Z,24.76
2023-09-17T07:10:05.751Z,24.76
2023-09-17T07:13:04.798Z,24.77
2023-09-17T07:15:04.821Z,24.74
2023-09-17T07:17:05.545Z,24.74
2023-09-17T07:20:04.853Z,24.73
2023-09-17T07:22:04.798Z,24.75
2023-09-17T07:24:05.738Z,24.75
2023-09-17T07:27:04.833Z,24.73
2023-09-17T07:30:05.212Z,24.75
2023-09-17T07:32:05.332Z,24.77
2023-09-17T07:34:05.411Z,24.76
2023-09-17T07:37:04.821Z,24.8
2023-09-17T07:39:04.821Z,24.86
2023-09-17T07:42:04.824Z,24.81
2023-09-17T07:44:05.536Z,24.83
2023-09-17T07:47:05.308Z,24.93
2023-09-17T07:50:05.448Z,24.91
2023-09-17T07:53:04.835Z,24.9
2023-09-17T07:56:04.965Z,25
2023-09-17T07:59:04.981Z,25.02
2023-09-17T08:01:05.226Z,25.06
2023-09-17T08:04:04.866Z,25.11
2023-09-17T08:06:04.793Z,25.18
2023-09-17T08:08:05.437Z,25.23
2023-09-17T08:11:05.122Z,25.25
2023-09-17T08:14:05.495Z,25.3
2023-09-17T08:17:05.066Z,25.32
2023-09-17T08:20:04.834Z,25.32
2023-09-17T08:22:04.831Z,25.34
2023-09-17T08:25:04.838Z,25.42
2023-09-17T08:27:05.262Z,25.45
2023-09-17T08:30:04.896Z,25.49
2023-09-17T08:32:05.415Z,25.5
2023-09-17T08:35:04.864Z,25.54
2023-09-17T08:37:04.836Z,25.58
2023-09-17T08:40:04.835Z,25.57
2023-09-17T08:42:06.647Z,25.57
2023-09-17T08:45:05.082Z,25.62
2023-09-17T08:48:05.527Z,25.68
2023-09-17T08:51:05.290Z,25.63
2023-09-17T08:54:04.837Z,25.68
2023-09-17T08:56:05.270Z,25.7
2023-09-17T08:58:05.572Z,25.69
2023-09-17T09:01:04.847Z,25.69
2023-09-17T09:04:04.907Z,25.75
2023-09-17T09:06:04.857Z,25.78
2023-09-17T09:08:05.299Z,25.8
2023-09-17T09:11:05.313Z,25.82
2023-09-17T09:14:05.400Z,25.86
2023-09-17T09:17:05.649Z,25.88
2023-09-17T09:20:05.115Z,25.89
2023-09-17T09:23:10.177Z,25.96
2023-09-17T09:25:04.890Z,26
2023-09-17T09:28:06.601Z,26.07
2023-09-17T09:30:06.963Z,26.11
2023-09-17T09:33:06.690Z,26.14
2023-09-17T09:35:06.668Z,26.15
2023-09-17T09:38:07.530Z,26.18
2023-09-17T09:41:07.430Z,26.23
2023-09-17T09:44:06.665Z,26.27
2023-09-17T09:47:06.688Z,26.3
2023-09-17T09:49:06.959Z,26.34
2023-09-17T09:52:06.660Z,26.39
2023-09-17T09:55:07.187Z,26.46
2023-09-17T09:58:07.053Z,26.52
2023-09-17T10:01:06.633Z,26.55
2023-09-17T10:03:07.203Z,26.6
2023-09-17T10:07:06.830Z,26.67
2023-09-17T10:09:07.146Z,26.72
2023-09-17T10:12:07.030Z,26.79
2023-09-17T10:15:06.718Z,26.86
2023-09-17T10:18:06.795Z,26.97
2023-09-17T10:21:06.896Z,27.06
2023-09-17T10:23:07.255Z,27.08
2023-09-17T10:27:05.750Z,27.17
2023-09-17T10:29:06.643Z,27.18
2023-09-17T10:31:07.425Z,27.2
2023-09-17T10:34:07.003Z,27.27
2023-09-17T10:36:06.766Z,27.31
2023-09-17T10:39:06.688Z,27.36
2023-09-17T10:41:07.589Z,27.39
2023-09-17T10:44:06.934Z,27.46
2023-09-17T10:47:07.365Z,27.52
2023-09-17T10:49:07.599Z,27.56
2023-09-17T10:52:07.591Z,27.64
2023-09-17T10:55:06.701Z,27.73
2023-09-17T10:58:07.667Z,27.81
2023-09-17T11:01:06.651Z,27.87
2023-09-17T11:03:06.777Z,27.92
2023-09-17T11:06:07.602Z,27.99
2023-09-17T11:09:07.256Z,28.05
2023-09-17T11:12:06.682Z,28.12
2023-09-17T11:14:07.009Z,28.18
2023-09-17T11:16:07.324Z,28.24
2023-09-17T11:19:07.255Z,28.33
2023-09-17T11:22:06.670Z,28.38
2023-09-17T11:24:07.800Z,28.45
2023-09-17T11:27:06.689Z,28.53
2023-09-17T11:30:07.282Z,28.58
2023-09-17T11:33:07.342Z,28.66
2023-09-17T11:36:07.425Z,28.72
2023-09-17T11:39:06.721Z,28.82
2023-09-17T11:41:07.299Z,28.86
2023-09-17T11:44:07.228Z,28.92
2023-09-17T11:46:07.295Z,28.92
2023-09-17T11:49:07.132Z,28.98
2023-09-17T11:52:06.764Z,29.04
2023-09-17T11:55:07.294Z,29.12
2023-09-17T11:58:06.686Z,29.17
2023-09-17T12:01:06.745Z,29.24
2023-09-17T12:04:06.721Z,29.33
2023-09-17T12:06:07.313Z,29.38
2023-09-17T12:09:06.740Z,29.4
2023-09-17T12:12:06.668Z,29.5
2023-09-17T12:14:07.534Z,29.55
2023-09-17T12:17:06.799Z,29.61
2023-09-17T12:19:17.470Z,29.63
2023-09-17T12:22:06.731Z,29.69
2023-09-17T12:24:07.705Z,29.74
2023-09-17T12:27:07.664Z,29.84
2023-09-17T12:30:06.707Z,29.94
2023-09-17T12:32:06.986Z,30.04
2023-09-17T12:34:06.748Z,30.18
2023-09-17T12:37:06.708Z,30.23
2023-09-17T12:40:06.980Z,30.27
2023-09-17T12:43:06.713Z,30.52
2023-09-17T12:45:06.705Z,30.61
2023-09-17T12:47:06.720Z,30.68
2023-09-17T12:50:07.066Z,30.69
2023-09-17T12:53:06.770Z,30.76
2023-09-17T12:55:07.024Z,30.91
2023-09-17T12:58:06.711Z,31.14
2023-09-17T13:00:07.149Z,31.04
2023-09-17T13:03:07.758Z,31.08
2023-09-17T13:06:07.354Z,31.13
2023-09-17T13:09:07.246Z,31.19
2023-09-17T13:12:06.719Z,31.28
2023-09-17T13:15:06.750Z,31.32
2023-09-17T13:17:07.258Z,31.45
2023-09-17T13:20:06.730Z,31.55
2023-09-17T13:22:07.050Z,31.53
2023-09-17T13:25:07.108Z,31.49
2023-09-17T13:27:06.755Z,31.45
2023-09-17T13:30:06.787Z,31.5
2023-09-17T13:33:06.752Z,31.74
2023-09-17T13:36:06.720Z,31.87
2023-09-17T13:38:07.359Z,31.98
2023-09-17T13:41:06.754Z,32.11
2023-09-17T13:43:07.502Z,32.16
2023-09-17T13:46:06.748Z,32.33
2023-09-17T13:48:07.359Z,32.38
2023-09-17T13:51:06.964Z,32.41
2023-09-17T13:54:06.957Z,32.41
2023-09-17T13:56:07.518Z,32.41
2023-09-17T13:58:07.655Z,32.55
2023-09-17T14:01:07.620Z,32.74
2023-09-17T14:04:07.056Z,32.88
2023-09-17T14:06:06.753Z,32.88
2023-09-17T14:08:06.785Z,32.93
2023-09-17T14:10:06.898Z,33.02
2023-09-17T14:13:06.937Z,33.06
2023-09-17T14:15:07.492Z,33.12
2023-09-17T14:18:07.229Z,33.46
2023-09-17T14:21:07.626Z,33.63
2023-09-17T14:24:06.751Z,33.74
2023-09-17T14:26:07.051Z,33.79
2023-09-17T14:29:06.782Z,33.93
2023-09-17T14:31:06.783Z,34.16
2023-09-17T14:34:06.772Z,34.18
2023-09-17T14:36:06.753Z,34.08
2023-09-17T14:38:07.351Z,33.89
2023-09-17T14:41:07.288Z,33.73
2023-09-17T14:44:06.880Z,33.68
2023-09-17T14:47:07.035Z,33.74
2023-09-17T14:50:07.528Z,33.82
2023-09-17T14:53:06.802Z,33.88
2023-09-17T14:55:06.763Z,33.91
2023-09-17T14:57:07.148Z,33.99
2023-09-17T14:59:07.287Z,33.96
2023-09-17T15:02:06.838Z,34.04
2023-09-17T15:04:06.830Z,34
2023-09-17T15:06:07.273Z,33.99
2023-09-17T15:09:06.841Z,33.96
2023-09-17T15:12:07.244Z,34.02
2023-09-17T15:15:06.773Z,34.11
2023-09-17T15:17:06.896Z,34.23
2023-09-17T15:19:07.420Z,34.32
2023-09-17T15:22:06.752Z,34.39
2023-09-17T15:24:06.793Z,34.34
2023-09-17T15:26:07.451Z,34.36
2023-09-17T15:29:06.775Z,34.46
2023-09-17T15:32:06.901Z,34.48
2023-09-17T15:35:06.918Z,34.34
2023-09-17T15:37:06.770Z,34.27
2023-09-17T15:39:06.882Z,34.25
2023-09-17T15:42:07.056Z,34.2
2023-09-17T15:44:07.057Z,34.15
2023-09-17T15:47:06.963Z,34.18
2023-09-17T15:49:07.609Z,34.23
2023-09-17T15:52:06.864Z,34.34
2023-09-17T15:55:06.934Z,34.32
2023-09-17T15:57:07.203Z,34.32
2023-09-17T15:59:07.258Z,34.29
2023-09-17T16:01:07.508Z,34.25
2023-09-17T16:04:06.844Z,34.22
2023-09-17T16:06:07.301Z,34.18
2023-09-17T16:09:07.653Z,34.13
2023-09-17T16:12:06.794Z,34
2023-09-17T16:15:06.866Z,34
2023-09-17T16:18:06.805Z,33.9
2023-09-17T16:20:07.052Z,33.8
2023-09-17T16:23:07.002Z,33.63
2023-09-17T16:26:06.837Z,33.53
2023-09-17T16:28:07.252Z,33.46
2023-09-17T16:30:07.739Z,33.4
2023-09-17T16:33:07.063Z,33.27
2023-09-17T16:35:07.254Z,33.14
2023-09-17T16:37:07.543Z,33.02
2023-09-17T16:40:06.801Z,32.87
2023-09-17T16:42:07.414Z,32.79
2023-09-17T16:45:07.190Z,32.68
2023-09-17T16:47:07.522Z,32.61
2023-09-17T16:50:06.858Z,32.52
2023-09-17T16:53:07.362Z,32.46
2023-09-17T16:56:07.186Z,32.36
2023-09-17T16:59:07.406Z,32.25
2023-09-17T17:02:06.808Z,32.16
2023-09-17T17:04:06.881Z,32.03
2023-09-17T17:06:07.047Z,31.9
2023-09-17T17:09:06.854Z,31.74
2023-09-17T17:11:06.974Z,31.64
2023-09-17T17:14:06.799Z,31.57
2023-09-17T17:16:06.876Z,31.61
2023-09-17T17:18:07.544Z,31.63
2023-09-17T17:21:07.578Z,31.59
2023-09-17T17:24:06.831Z,31.51
2023-09-17T17:27:07.282Z,31.42
2023-09-17T17:30:07.237Z,31.35
2023-09-17T17:33:06.970Z,31.32
2023-09-17T17:35:07.124Z,31.27
2023-09-17T17:38:05.214Z,31.23
2023-09-17T17:40:06.819Z,31.19
2023-09-17T17:42:07.732Z,31.14
2023-09-17T17:45:07.090Z,31.08
2023-09-17T17:47:07.419Z,31.03
2023-09-17T17:50:06.928Z,30.97
2023-09-17T17:53:07.001Z,30.9
2023-09-17T17:56:07.393Z,30.82
2023-09-17T17:59:07.582Z,30.73
2023-09-17T18:02:07.112Z,30.66
2023-09-17T18:04:07.539Z,30.63
2023-09-17T18:07:07.758Z,30.52
2023-09-17T18:10:07.089Z,30.41
2023-09-17T18:12:07.302Z,30.36
2023-09-17T18:15:06.859Z,30.28
2023-09-17T18:17:07.115Z,30.22
2023-09-17T18:20:07.421Z,30.12
2023-09-17T18:23:07.119Z,30.01
2023-09-17T18:26:06.847Z,29.9
2023-09-17T18:28:06.841Z,29.84
2023-09-17T18:30:06.852Z,29.75
2023-09-17T18:33:07.231Z,29.66
2023-09-17T18:36:06.833Z,29.66
2023-09-17T18:39:06.822Z,29.57
2023-09-17T18:41:07.824Z,29.54
2023-09-17T18:44:06.727Z,29.49
2023-09-17T18:46:06.870Z,29.43
2023-09-17T18:49:06.865Z,29.31
2023-09-17T18:51:07.049Z,29.26
2023-09-17T18:53:07.576Z,29.2
2023-09-17T18:56:06.882Z,29.12
2023-09-17T18:58:06.886Z,29.04
2023-09-17T19:01:06.957Z,29.01
2023-09-17T19:03:07.130Z,29
2023-09-17T19:06:06.950Z,28.95
2023-09-17T19:08:07.059Z,28.93
2023-09-17T19:10:07.410Z,28.9
2023-09-17T19:13:06.849Z,28.82
2023-09-17T19:15:06.879Z,28.72
2023-09-17T19:17:06.974Z,28.7
2023-09-17T19:19:07.786Z,28.69
2023-09-17T19:22:06.958Z,28.68
2023-09-17T19:25:06.879Z,28.63
2023-09-17T19:27:07.686Z,28.63
2023-09-17T19:30:06.855Z,28.56
2023-09-17T19:33:06.913Z,28.47
2023-09-17T19:35:06.884Z,28.4
2023-09-17T19:38:06.928Z,28.38
2023-09-17T19:41:07.407Z,28.33
2023-09-17T19:43:07.826Z,28.31
2023-09-17T19:46:07.734Z,28.3
2023-09-17T19:49:06.966Z,28.18
2023-09-17T19:52:07.516Z,28.17
2023-09-17T19:55:07.333Z,28.19
2023-09-17T19:57:07.525Z,28.22
2023-09-17T20:00:07.248Z,28.17
2023-09-17T20:02:07.444Z,28.14
2023-09-17T20:05:06.933Z,28.07
2023-09-17T20:07:07.642Z,28
2023-09-17T20:10:06.858Z,27.95
2023-09-17T20:12:06.931Z,27.89
2023-09-17T20:15:06.892Z,27.9
2023-09-17T20:17:06.970Z,27.92
2023-09-17T20:20:06.944Z,27.98
2023-09-17T20:22:07.696Z,27.94
2023-09-17T20:25:07.060Z,27.92
2023-09-17T20:28:06.932Z,27.9
2023-09-17T20:30:07.842Z,27.88
2023-09-17T20:33:07.065Z,27.87
2023-09-17T20:36:07.016Z,27.92
2023-09-17T20:38:07.317Z,27.92
2023-09-17T20:40:07.753Z,27.91
2023-09-17T20:43:07.060Z,27.89
2023-09-17T20:46:06.906Z,27.87
2023-09-17T20:48:07.564Z,27.81
2023-09-17T20:51:07.709Z,27.75
2023-09-17T20:54:07.266Z,27.77
2023-09-17T20:57:07.400Z,27.65
2023-09-17T21:00:06.929Z,27.6
2023-09-17T21:02:07.018Z,27.6
2023-09-17T21:04:07.040Z,27.59
2023-09-17T21:06:07.472Z,27.54
2023-09-17T21:09:06.907Z,27.54
2023-09-17T21:11:06.924Z,27.56
2023-09-17T21:14:07.368Z,27.56
2023-09-17T21:17:07.478Z,27.56
2023-09-17T21:19:07.508Z,27.56
2023-09-17T21:22:08.393Z,27.72
2023-09-17T21:25:06.980Z,27.6
2023-09-17T21:27:07.341Z,27.56
2023-09-17T21:30:07.016Z,27.53
2023-09-17T21:33:07.631Z,27.41
2023-09-17T21:36:07.330Z,27.4
2023-09-17T21:39:07.563Z,27.35
2023-09-17T21:41:07.869Z,27.33
2023-09-17T21:44:07.332Z,27.46
2023-09-17T21:47:07.286Z,27.43
2023-09-17T21:50:06.957Z,27.31
2023-09-17T21:53:07.800Z,27.28
2023-09-17T21:56:06.973Z,27.22
2023-09-17T21:58:06.928Z,27.22
2023-09-17T22:00:07.485Z,27.2
2023-09-17T22:03:07.295Z,27.13
2023-09-17T22:05:07.793Z,27.16
2023-09-17T22:08:06.967Z,27.08
2023-09-17T22:10:06.914Z,27.09
2023-09-17T22:12:07.187Z,27.05
2023-09-17T22:14:06.944Z,27.01
2023-09-17T22:17:06.976Z,27.04
2023-09-17T22:19:06.937Z,27.04
2023-09-17T22:22:07.780Z,26.91
2023-09-17T22:25:06.924Z,26.87
2023-09-17T22:27:07.477Z,26.76
2023-09-17T22:30:07.051Z,26.74
2023-09-17T22:33:07.123Z,26.98
2023-09-17T22:35:07.483Z,26.97
2023-09-17T22:37:07.606Z,26.97
2023-09-17T22:40:06.915Z,26.76
2023-09-17T22:42:06.932Z,26.78
2023-09-17T22:44:16.578Z,26.81
2023-09-17T22:46:06.962Z,26.77
2023-09-17T22:48:07.401Z,26.78
2023-09-17T22:51:06.939Z,26.73
2023-09-17T22:53:06.959Z,26.7
2023-09-17T22:55:06.977Z,26.69
2023-09-17T22:57:07.102Z,26.69
2023-09-17T22:59:07.620Z,26.66
2023-09-17T23:02:07.693Z,26.54
2023-09-17T23:05:06.968Z,26.52
2023-09-17T23:07:07.301Z,26.51
2023-09-17T23:10:07.675Z,26.5
2023-09-17T23:13:07.010Z,26.5
2023-09-17T23:16:07.131Z,26.46
2023-09-17T23:19:06.923Z,26.44
2023-09-17T23:21:07.039Z,26.49
2023-09-17T23:24:06.989Z,26.45
2023-09-17T23:27:06.950Z,26.5
2023-09-17T23:29:07.619Z,26.55
2023-09-17T23:32:07.032Z,26.55
2023-09-17T23:34:07.694Z,26.5
2023-09-17T23:37:07.843Z,26.46
2023-09-17T23:40:06.965Z,26.43
2023-09-17T23:42:07.031Z,26.48
2023-09-17T23:44:07.142Z,26.48
2023-09-17T23:46:07.274Z,26.52
2023-09-17T23:49:07.677Z,26.39
2023-09-17T23:52:06.971Z,26.34
2023-09-17T23:55:07.786Z,26.27
2023-09-17T23:58:06.934Z,26.28
